Terminal Aerodrome Forecast
Issued by NWS Wilmington, OH

Current Version | Previous Version | Graphics & Text | Print | Product List | Glossary On
Versions: 1 2 3 4 5 6 7 8 9 10 11 12 13 14 15 16
105
FTUS41 KILN 091124
TAFDAY
TAF
KDAY 091124Z 0912/1012 27012KT 5SM -SN OVC015
      TEMPO 0912/0915 2SM -SN OVC022
     FM091600 28014G22KT 5SM -SHSN OVC022
     FM100000 28012KT P6SM VCSH OVC025=

USA.gov is the U.S. government's official web portal to all federal, state and local government web resources and services.